Aérodrome :
LOGIN :

S'inscrire | Disclaimer

   EN    FR    IT 

 










Légende :    VFR   VFR Marginal   IFR   IFR Intensif   IFR Très Intensif
Visi : 
Plafond : 
>= 8 km
>= 3000ft
5 à 8 km
1000 à 3000 ft
1500m à 5 km
500 à 1000 ft
800 à 1500m
200 à 500 ft
< 800m
< 200 ft
Symboles :   Orages  Brouillard  Fortes neiges  Fortes précipitations  Vent > 20 kt
SIGMETs :   Divers  Orages  Givrage  Turbulence  Onde Orograph.  Cendres Volcan.







- Altitude de l'aérodrome : 423 ft
- Code IATA : PIS
- Voir les cartes d'approche


LFBI - Poitiers

DERNIER METAR :
  • 301230Z AUTO 22022KT 3600 RA BR SCT015/// SCT025/// BKN035/// ///TCU 11/09 Q1001 TEMPO 25020G35KT TSGRRA BKN030TCU SCT040CB

METARs EXPIRÉS :
  • 301200Z AUTO 19015KT 9999 -RA FEW047/// BKN054/// OVC068/// ///CB 14/09 Q1000 TEMPO 25020G35KT 3000 TSGRRA
  • 301130Z AUTO 19018G29KT 160V220 9999 -RA FEW028 BKN060 OVC072 15/08 Q1000 TEMPO 3000 TSGRRA BKN030TCU SCT040CB
  • 301100Z AUTO 18018KT 9999 FEW043 SCT070 BKN082 17/06 Q0999 TEMPO 25018G35KT 3000 TSRA BKN030TCU SCT040CB
  • 301030Z AUTO 18015KT CAVOK 18/07 Q1000 TEMPO 25018G35KT 3000 TSRA BKN030TCU SCT040CB
  • 301000Z AUTO 17019KT 140V200 CAVOK 17/06 Q1000 TEMPO 4500 RA BECMG 26015G25KT BKN040TCU

TAF TAF LFBI
Valide du 30 à 12h jusqu'au 01 à 12h UTC


301100Z 3012/0112 22014KT 9999 BKN030
TEMPO 3012/3018 25020G35KT 3000 TSGRRA BKN030TCU SCT040CB
TEMPO 3022/0106 3000 SHRA BKN020TCU FEW070CB
Pas de NOTAMs connus pour ce terrain.
4 SIGMETs publiés pour la FIR Bordeaux (LFBB) :
 
Orages noyés dans la masse
LFBB SIGMET 9 VALID 301200/301400 LFPW
LFBB BORDEAUX FIR/UIR EMBD TS OBS WI N4400 W00015 - N4615 E00030 - N4630 E00115 - N4430 E00045 TOP FL300 MOV NE 15KT NC=
Turbulence forte
LFBB SIGMET 8 VALID 301200/301600 LFPW
LFBB BORDEAUX FIR/UIR SEV TURB FCST WI N4300 W00115 - N4300 W00145 - N4545 W00145 - N4545 W00030 SFC/FL070 MOV E 15KT NC=
Turbulence forte
LFBB SIGMET 7 VALID 301200/301600 LFPW
LFBB BORDEAUX FIR/UIR SEV TURB FCST WI N4630 E00300 - N4230 E00230 - N4615 E00115 SFC/FL070 STNR NC=
Onde orographique forte
LFBB SIGMET 6 VALID 301200/301600 LFPW
LFBB BORDEAUX FIR/UIR SEV MTW FCST S OF LINE N4245 E00230 - N4315 W00145 FL050/350 STNR NC=



MET'MAP, la Météo Aéronautique d'un coup d'oeil ! - Copyright ORBIFLY Décembre 2007 - Disclaimer

ORBIFLY MET'MAP TEAM :

Programmation & Développement : Alexandra Zaïnal
Conception & Développement : Baudouin d'Aumeries
Co-Programmation & Développement : Marc-Olivier Méhu
Soutien technique & logistique : Manuel Goepfert

Contact : metmap@orbifly.com




SOURCES & CREDITS :

   NOAA